createdAt,value
2023-01-27T06:57:01.968Z,28.92
2023-01-27T06:58:01.975Z,29.13
2023-01-27T06:59:01.971Z,29.35
2023-01-27T07:00:01.995Z,29.39
2023-01-27T07:01:01.971Z,29.61
2023-01-27T07:02:01.960Z,29.81
2023-01-27T07:03:01.952Z,29.90
2023-01-27T07:04:01.965Z,30.01
2023-01-27T07:05:01.941Z,30.11
2023-01-27T07:06:01.929Z,30.19
2023-01-27T07:07:01.931Z,30.22
2023-01-27T07:08:01.928Z,30.48
2023-01-27T07:09:01.933Z,30.61
2023-01-27T07:10:01.899Z,30.69
2023-01-27T07:11:01.902Z,30.71
2023-01-27T07:12:01.883Z,30.81
2023-01-27T07:13:01.874Z,30.91
2023-01-27T07:14:01.875Z,30.98
2023-01-27T07:15:01.864Z,31.09
2023-01-27T07:16:01.962Z,31.11
2023-01-27T07:17:01.877Z,31.29
2023-01-27T07:33:01.698Z,32.08
2023-01-27T09:16:56.556Z,31.46
2023-01-27T09:17:56.519Z,31.46
2023-01-27T09:18:56.452Z,31.44
2023-01-27T09:19:56.397Z,31.47
2023-01-27T09:20:56.351Z,31.56
2023-01-27T09:21:56.288Z,31.55
2023-01-27T09:22:56.220Z,31.61
2023-01-27T09:23:56.185Z,31.33
2023-01-27T09:24:56.129Z,31.46
2023-01-27T09:25:56.028Z,31.68
2023-01-27T09:26:55.966Z,31.62
2023-01-27T09:27:55.894Z,31.78
2023-01-27T09:28:55.858Z,31.80
2023-01-27T09:29:55.762Z,31.87
2023-01-27T09:30:55.737Z,31.92
2023-01-27T09:31:55.675Z,31.83
2023-01-27T09:32:55.598Z,31.74
2023-01-27T09:33:55.520Z,31.64
2023-01-27T09:34:55.465Z,31.17
2023-01-27T09:35:55.381Z,31.21
2023-01-27T09:36:55.330Z,31.11
2023-01-27T09:37:55.280Z,30.91
2023-01-27T09:38:55.196Z,30.66
2023-01-27T09:39:55.150Z,30.55
2023-01-27T09:40:55.096Z,30.29
2023-01-27T09:41:55.028Z,29.99
2023-01-27T09:42:54.950Z,30.00
2023-01-27T09:43:54.888Z,29.92
2023-01-27T09:44:54.834Z,29.81
2023-01-27T09:45:54.843Z,29.69
2023-01-27T09:46:54.723Z,29.26
2023-01-27T12:07:44.729Z,31.35
2023-01-27T12:08:44.687Z,31.60
2023-01-27T13:25:39.219Z,29.13
2023-01-27T13:26:39.159Z,29.08
2023-01-27T13:27:39.087Z,29.10
2023-01-27T13:28:51.317Z,29.09
2023-01-27T13:29:39.944Z,29.06
2023-01-27T13:30:38.915Z,29.04
2023-01-27T13:31:38.904Z,29.05
2023-01-27T13:32:38.750Z,28.97
2023-01-27T13:33:38.700Z,28.96
2023-01-27T13:34:38.618Z,28.94
2023-01-27T13:35:38.562Z,28.95
2023-01-27T13:36:38.512Z,28.96
2023-01-27T13:37:38.431Z,28.97
2023-01-27T13:38:38.381Z,28.90
2023-01-27T13:39:38.319Z,28.93
2023-01-27T13:40:38.252Z,28.83
2023-01-27T13:41:38.187Z,28.85
2023-01-27T13:42:38.110Z,28.88
2023-01-27T13:43:38.063Z,28.83
2023-01-27T13:44:38.018Z,28.88
2023-01-27T13:45:37.946Z,28.87
2023-01-27T13:46:37.975Z,28.87
2023-01-27T13:47:37.809Z,28.89
2023-01-27T13:48:37.777Z,28.90
2023-01-27T13:49:37.700Z,28.91
2023-01-27T13:50:37.631Z,28.91
2023-01-27T13:51:39.512Z,28.89
2023-01-27T13:52:37.489Z,28.86
2023-01-27T13:53:37.446Z,28.87
2023-01-27T13:54:37.379Z,28.86
2023-01-27T13:55:37.319Z,28.86
2023-01-27T13:56:37.251Z,28.82
2023-01-27T13:57:37.195Z,28.77
2023-01-27T13:58:37.117Z,28.81
2023-01-27T13:59:37.049Z,28.76
2023-01-27T14:00:36.987Z,28.77
2023-01-27T14:01:37.020Z,28.78
2023-01-27T14:02:36.857Z,28.76
2023-01-27T14:03:36.787Z,28.75
2023-01-27T14:04:36.796Z,28.73
2023-01-27T14:05:36.661Z,28.76
2023-01-27T14:06:36.606Z,28.74
2023-01-27T14:07:36.529Z,28.76
2023-01-27T14:08:36.487Z,28.76
2023-01-27T14:09:36.402Z,28.72
2023-01-27T14:10:36.348Z,28.71
2023-01-27T14:11:36.287Z,28.72
2023-01-27T14:12:36.217Z,28.69
2023-01-27T14:13:36.161Z,28.68
2023-01-27T14:14:37.272Z,28.69
2023-01-27T14:15:37.078Z,28.70
2023-01-27T14:16:35.994Z,28.70
2023-01-27T14:17:35.923Z,28.68
2023-01-27T14:18:35.856Z,28.63
2023-01-27T14:19:35.788Z,28.65
2023-01-27T14:20:35.749Z,28.64
2023-01-27T14:21:41.809Z,28.61
2023-01-27T14:22:36.610Z,28.63
2023-01-27T14:23:35.549Z,28.60
2023-01-27T14:24:35.472Z,28.57
2023-01-27T14:25:35.445Z,28.61
2023-01-27T14:26:35.356Z,28.61
2023-01-27T14:27:35.292Z,28.59
2023-01-27T14:28:35.223Z,28.57
2023-01-27T14:29:35.156Z,28.53
2023-01-27T14:30:35.197Z,28.54
2023-01-27T14:31:35.068Z,28.58
2023-01-27T14:32:34.958Z,28.55
2023-01-27T14:33:34.913Z,28.53
2023-01-27T14:34:34.826Z,28.54
2023-01-27T14:35:34.770Z,28.55
2023-01-27T14:36:34.695Z,28.51
2023-01-27T16:44:26.982Z,27.95
2023-01-27T16:53:26.418Z,27.91
2023-01-27T16:57:26.119Z,27.93
2023-01-27T16:58:39.893Z,27.94
2023-01-27T17:11:25.438Z,27.87
2023-01-27T17:13:25.414Z,27.85
2023-01-27T17:15:25.433Z,27.86
2023-01-27T17:24:25.473Z,27.83
2023-01-27T17:25:25.374Z,27.84
2023-01-27T17:26:25.378Z,27.84
2023-01-27T17:27:25.383Z,27.84
2023-01-27T17:28:25.379Z,27.83
2023-01-27T17:29:25.388Z,27.80
2023-01-27T17:30:25.381Z,27.82
2023-01-27T17:31:25.512Z,27.81
2023-01-27T17:32:25.392Z,27.80
2023-01-27T17:33:25.378Z,27.77
2023-01-27T17:34:25.394Z,27.76
2023-01-27T17:35:25.389Z,27.77
2023-01-27T17:36:25.372Z,27.79
2023-01-27T17:37:25.379Z,27.78
2023-01-27T17:38:25.395Z,27.75
2023-01-27T17:39:25.368Z,27.76
2023-01-27T17:40:25.369Z,27.74
2023-01-27T17:41:25.374Z,27.73
2023-01-27T17:42:25.379Z,27.73
2023-01-27T17:43:25.383Z,27.73
2023-01-27T17:44:25.375Z,27.73
2023-01-27T17:45:25.396Z,27.73
2023-01-27T17:46:25.405Z,27.72
2023-01-27T17:47:25.368Z,27.72
2023-01-27T17:48:25.369Z,27.74
2023-01-27T17:49:25.364Z,27.71
2023-01-27T17:50:25.400Z,27.72
2023-01-27T17:51:25.364Z,27.71
2023-01-27T17:52:25.356Z,27.72
2023-01-27T17:53:25.361Z,27.72
2023-01-27T17:54:25.370Z,27.69
2023-01-27T17:55:25.388Z,27.68
2023-01-27T17:56:25.368Z,27.69
2023-01-27T17:57:25.371Z,27.67
2023-01-27T17:58:25.374Z,27.70
2023-01-27T17:59:25.370Z,27.68
2023-01-27T18:00:25.382Z,27.67
2023-01-27T18:01:25.414Z,27.67
2023-01-27T18:02:25.399Z,27.65
2023-01-27T18:03:25.375Z,27.64
2023-01-27T18:04:25.374Z,27.66
2023-01-27T18:05:25.375Z,27.67
2023-01-27T18:06:25.389Z,27.64
2023-01-27T18:07:25.372Z,27.67
2023-01-27T18:08:25.391Z,27.64
2023-01-27T18:09:25.404Z,27.63
2023-01-27T18:10:25.397Z,27.64
2023-01-27T18:11:25.397Z,27.64
2023-01-27T18:12:25.395Z,27.65
2023-01-27T18:13:25.392Z,27.63
2023-01-27T18:14:25.399Z,27.62
2023-01-27T18:15:25.402Z,27.63
2023-01-27T18:16:25.420Z,27.63
2023-01-27T18:17:25.403Z,27.63
2023-01-27T18:18:25.409Z,27.62
2023-01-27T18:19:25.452Z,27.59
2023-01-27T18:20:25.433Z,27.60
2023-01-27T18:21:25.414Z,27.61
2023-01-27T18:22:25.425Z,27.60
2023-01-27T18:23:25.427Z,27.58
2023-01-27T18:24:25.472Z,27.58
2023-01-27T18:25:25.435Z,27.59
2023-01-27T18:26:25.437Z,27.57
2023-01-27T18:27:25.445Z,27.57
2023-01-27T18:28:25.440Z,27.57
2023-01-27T18:29:25.455Z,27.57
2023-01-27T18:30:25.446Z,27.56
2023-01-27T18:31:25.505Z,27.55
2023-01-27T18:32:25.467Z,27.56
2023-01-27T18:33:25.480Z,27.55
2023-01-27T18:34:25.464Z,27.56
2023-01-27T18:35:25.488Z,27.54
2023-01-27T18:36:25.465Z,27.54
2023-01-27T18:37:25.466Z,27.56
2023-01-27T18:38:25.473Z,27.53
2023-01-27T18:39:25.465Z,27.53
2023-01-27T18:40:25.474Z,27.54
2023-01-27T18:41:25.469Z,27.53
2023-01-27T18:42:25.479Z,27.52
2023-01-27T18:43:25.473Z,27.53
2023-01-27T18:44:25.476Z,27.48
2023-01-27T18:45:25.476Z,27.52
2023-01-27T18:46:25.501Z,27.55
2023-01-27T18:47:25.486Z,27.54
2023-01-27T18:48:25.472Z,27.56
2023-01-27T18:49:25.514Z,27.55
2023-01-27T18:50:25.487Z,27.54
2023-01-27T18:51:25.484Z,27.52
2023-01-27T18:52:25.491Z,27.54
2023-01-27T18:53:25.485Z,27.54
2023-01-27T18:54:25.481Z,27.52
2023-01-27T18:55:25.502Z,27.52
2023-01-27T18:56:25.488Z,27.53
2023-01-27T19:01:25.502Z,27.51
2023-01-27T19:08:25.552Z,27.43
2023-01-27T19:09:25.555Z,27.44
2023-01-27T19:10:25.576Z,27.48
2023-01-27T19:11:25.572Z,27.45
2023-01-27T19:12:25.580Z,27.44
2023-01-27T19:13:25.594Z,27.49
2023-01-27T19:14:25.591Z,27.46
2023-01-27T19:15:25.580Z,27.48
2023-01-27T19:16:25.597Z,27.47
2023-01-27T19:17:25.582Z,27.47
2023-01-27T19:18:26.333Z,27.47
2023-01-27T19:19:25.533Z,27.46
2023-01-27T19:20:25.475Z,27.43
2023-01-27T19:21:25.421Z,27.44
2023-01-27T19:22:25.343Z,27.44
2023-01-27T19:23:25.297Z,27.42
2023-01-27T19:24:25.263Z,27.41
2023-01-27T19:25:25.167Z,27.42
2023-01-27T19:26:25.145Z,27.41
2023-01-27T19:27:25.144Z,27.40
2023-01-27T19:28:25.178Z,27.42
2023-01-27T19:29:25.155Z,27.40
2023-01-27T19:30:25.174Z,27.40
2023-01-27T19:31:25.302Z,27.38
2023-01-27T19:32:25.153Z,27.37
2023-01-27T19:33:25.181Z,27.35
2023-01-27T19:34:25.156Z,27.38
2023-01-27T19:35:25.171Z,27.40
2023-01-27T19:36:25.197Z,27.38
2023-01-27T19:37:25.183Z,27.40
2023-01-27T19:38:25.176Z,27.38
2023-01-27T19:39:25.184Z,27.38
2023-01-27T19:40:25.193Z,27.37
2023-01-27T19:41:25.190Z,27.39
2023-01-27T19:42:25.191Z,27.35
2023-01-27T19:43:25.190Z,27.36
2023-01-27T19:44:25.180Z,27.35
2023-01-27T19:45:25.224Z,27.35
2023-01-27T19:46:25.187Z,27.35
2023-01-27T19:47:25.195Z,27.35
2023-01-27T19:48:25.203Z,27.36
2023-01-27T19:49:25.206Z,27.34
2023-01-27T19:50:25.229Z,27.34
2023-01-27T19:51:25.225Z,27.33
2023-01-27T19:52:25.224Z,27.32
2023-01-27T19:53:25.233Z,27.34
2023-01-27T19:54:25.249Z,27.34
2023-01-27T19:55:25.273Z,27.34
2023-01-27T19:56:25.252Z,27.35
2023-01-27T19:57:25.249Z,27.37
2023-01-27T19:58:25.281Z,27.32
2023-01-27T19:59:25.247Z,27.29
2023-01-27T20:00:25.254Z,27.33
2023-01-27T20:01:25.467Z,27.31
2023-01-27T20:02:25.299Z,27.33
2023-01-27T20:03:25.273Z,27.30
2023-01-27T20:04:25.320Z,27.29
2023-01-27T20:05:25.294Z,27.29
2023-01-27T20:06:25.277Z,27.31
2023-01-27T20:07:25.292Z,27.32
2023-01-27T20:08:25.278Z,27.30
2023-01-27T20:09:25.281Z,27.28
2023-01-27T20:10:25.274Z,27.29
2023-01-27T20:11:25.274Z,27.28
2023-01-27T20:12:25.276Z,27.29
2023-01-27T20:13:25.274Z,27.29
2023-01-27T20:14:25.271Z,27.28
2023-01-27T20:15:25.299Z,27.27
2023-01-27T20:16:25.301Z,27.27
2023-01-27T20:17:25.282Z,27.27
2023-01-27T20:18:25.283Z,27.26
2023-01-27T20:19:25.301Z,27.27
2023-01-27T20:20:25.290Z,27.26
2023-01-27T20:21:25.286Z,27.25
2023-01-27T20:22:25.271Z,27.25
2023-01-27T20:23:25.289Z,27.26
2023-01-27T20:24:25.362Z,27.25
2023-01-27T20:25:25.275Z,27.24
2023-01-27T20:26:25.263Z,27.27
2023-01-27T20:27:25.261Z,27.24
2023-01-27T20:28:25.290Z,27.25
2023-01-27T20:29:25.258Z,27.23
2023-01-27T20:30:25.309Z,27.26
2023-01-27T20:31:25.300Z,27.23
2023-01-27T20:32:25.263Z,27.22
2023-01-27T20:33:25.210Z,27.21
2023-01-27T20:34:25.138Z,27.24
2023-01-27T20:35:25.084Z,27.24
2023-01-27T20:36:25.031Z,27.21
2023-01-27T20:37:24.995Z,27.21
2023-01-27T20:38:24.900Z,27.19
2023-01-27T20:39:24.847Z,27.21
2023-01-27T20:40:24.783Z,27.21
2023-01-27T20:41:24.738Z,27.20
2023-01-27T20:42:24.665Z,27.18
2023-01-27T21:57:20.291Z,26.96
2023-01-27T21:59:20.190Z,27.00
2023-01-27T22:00:20.108Z,26.99
2023-01-27T22:01:20.085Z,26.99
2023-01-27T22:02:19.986Z,26.96
2023-01-27T22:03:19.938Z,26.96
2023-01-27T22:04:19.922Z,26.95
2023-01-27T22:05:19.823Z,26.95
2023-01-27T22:06:19.761Z,26.97
2023-01-27T22:07:19.722Z,26.92
2023-01-27T22:08:19.661Z,26.94
2023-01-27T22:09:19.592Z,26.93
2023-01-27T22:10:19.533Z,26.92
2023-01-27T22:11:19.489Z,26.92
2023-01-27T22:12:19.427Z,26.92
2023-01-27T22:13:19.386Z,26.89
2023-01-27T22:14:19.327Z,26.91
2023-01-27T22:15:19.268Z,26.92
2023-01-27T22:16:19.209Z,26.92
2023-01-27T22:17:20.124Z,26.88
2023-01-27T22:18:19.101Z,26.92
2023-01-27T22:19:19.024Z,26.90
2023-01-27T22:20:18.980Z,26.89
2023-01-27T22:21:18.914Z,26.91
2023-01-27T22:22:18.866Z,26.89
2023-01-27T22:23:18.813Z,26.91
2023-01-27T22:24:18.772Z,26.90
2023-01-27T22:25:18.886Z,26.89
2023-01-27T22:26:20.671Z,26.88
2023-01-27T22:27:18.583Z,26.89
2023-01-27T22:28:18.522Z,26.88
2023-01-27T22:29:18.451Z,26.85
2023-01-27T22:30:18.441Z,26.85
2023-01-27T22:31:18.332Z,26.85
2023-01-27T22:32:18.317Z,26.86
2023-01-27T22:33:18.223Z,26.85
2023-01-27T22:34:18.158Z,26.85
2023-01-27T22:35:18.426Z,26.87
2023-01-27T22:36:18.053Z,26.85
2023-01-27T22:37:17.989Z,26.88
2023-01-27T22:38:17.939Z,26.87
2023-01-27T22:39:17.885Z,26.85
2023-01-27T22:40:17.887Z,26.83
2023-01-27T22:41:17.762Z,26.86
2023-01-27T22:42:17.698Z,26.83
2023-01-27T22:43:17.674Z,26.83
2023-01-27T22:44:17.671Z,26.84
2023-01-27T22:45:17.871Z,26.82
2023-01-27T22:46:17.667Z,26.84
2023-01-27T22:47:17.677Z,26.84
2023-01-27T22:48:17.681Z,26.84
2023-01-27T22:49:17.688Z,26.85
2023-01-27T22:50:17.676Z,26.85
2023-01-27T22:51:17.670Z,26.87
2023-01-27T22:52:17.678Z,26.87
2023-01-27T22:53:17.683Z,26.86
2023-01-27T22:54:17.692Z,26.86
2023-01-27T22:55:18.058Z,26.85
2023-01-27T22:56:17.623Z,26.83
2023-01-27T22:57:17.560Z,26.81
2023-01-27T22:58:17.505Z,26.83
2023-01-27T22:59:17.456Z,26.82
2023-01-27T23:00:17.393Z,26.82
2023-01-27T23:01:17.362Z,26.83
2023-01-27T23:02:17.302Z,26.80
2023-01-27T23:03:17.241Z,26.82
2023-01-27T23:04:17.252Z,26.81
2023-01-27T23:05:17.540Z,26.78
2023-01-27T23:06:17.252Z,26.81
2023-01-27T23:07:17.251Z,26.79
2023-01-27T23:08:17.255Z,26.79
2023-01-27T23:09:17.250Z,26.79
2023-01-27T23:10:17.244Z,26.77
2023-01-27T23:11:17.192Z,26.79
2023-01-27T23:12:17.133Z,26.77
2023-01-27T23:13:17.079Z,26.75
2023-01-27T23:14:17.017Z,26.76
2023-01-27T23:15:17.409Z,26.74
2023-01-27T23:16:16.919Z,26.76
2023-01-27T23:17:16.848Z,26.74
2023-01-27T23:18:16.781Z,26.76
2023-01-27T23:19:16.740Z,26.75
2023-01-27T23:20:16.668Z,26.77
2023-01-27T23:21:16.629Z,26.74
2023-01-27T23:22:16.569Z,26.77
2023-01-27T23:23:16.502Z,26.77
2023-01-27T23:24:16.474Z,26.73
2023-01-27T23:25:16.869Z,26.74
2023-01-27T23:26:16.325Z,26.74
2023-01-27T23:27:16.265Z,26.74
2023-01-27T23:28:16.210Z,26.74
2023-01-27T23:29:24.211Z,26.74
2023-01-27T23:30:17.091Z,26.74
2023-01-27T23:31:16.137Z,26.72
2023-01-27T23:32:15.984Z,26.73
2023-01-27T23:33:15.912Z,26.71
2023-01-27T23:34:15.848Z,26.72
2023-01-27T23:35:16.221Z,26.72
2023-01-27T23:36:15.732Z,26.73
2023-01-27T23:37:15.665Z,26.71
2023-01-27T23:38:31.420Z,26.71
2023-01-27T23:39:16.551Z,26.73
2023-01-27T23:40:15.497Z,26.74
2023-01-27T23:41:15.436Z,26.72
2023-01-27T23:42:15.370Z,26.71
2023-01-27T23:43:15.312Z,26.72
2023-01-27T23:44:15.260Z,26.71
2023-01-27T23:45:15.557Z,26.73
2023-01-27T23:46:15.134Z,26.70
2023-01-27T23:47:15.071Z,26.71
2023-01-27T23:48:15.009Z,26.69
2023-01-27T23:49:14.959Z,26.68
2023-01-27T23:50:14.879Z,26.69
2023-01-27T23:51:14.819Z,26.69
2023-01-27T23:52:14.755Z,26.69
2023-01-27T23:53:14.688Z,26.66
